sensor_id;sensor_type;location;lat;lon;timestamp;temperature;humidity
76857;DHT22;66179;44.686;37.628;2023-04-25T00:02:06;12.07;93.73
76857;DHT22;66179;44.686;37.628;2023-04-25T00:04:33;12.10;93.56
76857;DHT22;66179;44.686;37.628;2023-04-25T00:07:00;12.10;92.16
76857;DHT22;66179;44.686;37.628;2023-04-25T00:09:29;12.05;91.76
76857;DHT22;66179;44.686;37.628;2023-04-25T00:11:56;12.03;91.50
76857;DHT22;66179;44.686;37.628;2023-04-25T00:14:25;12.01;93.00
76857;DHT22;66179;44.686;37.628;2023-04-25T00:16:53;12.00;92.79
76857;DHT22;66179;44.686;37.628;2023-04-25T00:19:20;11.99;93.84
76857;DHT22;66179;44.686;37.628;2023-04-25T00:21:46;12.00;90.34
76857;DHT22;66179;44.686;37.628;2023-04-25T00:24:13;12.04;90.96
76857;DHT22;66179;44.686;37.628;2023-04-25T00:26:40;12.06;91.03
76857;DHT22;66179;44.686;37.628;2023-04-25T00:29:06;12.04;91.12
76857;DHT22;66179;44.686;37.628;2023-04-25T00:31:33;12.03;91.34
76857;DHT22;66179;44.686;37.628;2023-04-25T00:34:00;12.01;91.46
76857;DHT22;66179;44.686;37.628;2023-04-25T00:36:26;12.08;92.26
76857;DHT22;66179;44.686;37.628;2023-04-25T00:38:53;12.07;91.06
76857;DHT22;66179;44.686;37.628;2023-04-25T00:41:21;12.11;91.04
76857;DHT22;66179;44.686;37.628;2023-04-25T00:43:48;12.11;91.40
76857;DHT22;66179;44.686;37.628;2023-04-25T00:46:15;12.13;91.14
76857;DHT22;66179;44.686;37.628;2023-04-25T00:48:42;12.15;90.97
76857;DHT22;66179;44.686;37.628;2023-04-25T00:51:16;12.07;92.57
76857;DHT22;66179;44.686;37.628;2023-04-25T00:53:46;12.04;90.41
76857;DHT22;66179;44.686;37.628;2023-04-25T00:56:14;12.03;90.32
76857;DHT22;66179;44.686;37.628;2023-04-25T00:58:42;11.97;92.48
76857;DHT22;66179;44.686;37.628;2023-04-25T01:01:10;11.93;93.08
76857;DHT22;66179;44.686;37.628;2023-04-25T01:03:38;11.90;90.15
76857;DHT22;66179;44.686;37.628;2023-04-25T01:06:10;11.92;91.04
76857;DHT22;66179;44.686;37.628;2023-04-25T01:08:38;11.84;91.55
76857;DHT22;66179;44.686;37.628;2023-04-25T01:11:06;11.85;90.01
76857;DHT22;66179;44.686;37.628;2023-04-25T01:13:33;11.83;87.30
76857;DHT22;66179;44.686;37.628;2023-04-25T01:16:01;11.84;88.26
76857;DHT22;66179;44.686;37.628;2023-04-25T01:18:28;11.79;87.53
76857;DHT22;66179;44.686;37.628;2023-04-25T01:20:55;11.69;89.59
76857;DHT22;66179;44.686;37.628;2023-04-25T01:23:23;11.64;89.72
76857;DHT22;66179;44.686;37.628;2023-04-25T01:25:50;11.67;89.31
76857;DHT22;66179;44.686;37.628;2023-04-25T01:28:18;11.71;90.24
76857;DHT22;66179;44.686;37.628;2023-04-25T01:30:45;11.78;90.72
76857;DHT22;66179;44.686;37.628;2023-04-25T01:33:14;11.86;90.82
76857;DHT22;66179;44.686;37.628;2023-04-25T01:35:41;11.85;92.30
76857;DHT22;66179;44.686;37.628;2023-04-25T01:38:08;11.81;91.67
76857;DHT22;66179;44.686;37.628;2023-04-25T01:40:39;11.78;92.42
76857;DHT22;66179;44.686;37.628;2023-04-25T01:43:07;11.77;94.19
76857;DHT22;66179;44.686;37.628;2023-04-25T01:45:38;11.73;95.16
76857;DHT22;66179;44.686;37.628;2023-04-25T01:48:11;11.73;95.47
76857;DHT22;66179;44.686;37.628;2023-04-25T01:50:39;11.82;95.36
76857;DHT22;66179;44.686;37.628;2023-04-25T01:53:06;11.84;95.40
76857;DHT22;66179;44.686;37.628;2023-04-25T01:55:35;11.88;94.36
76857;DHT22;66179;44.686;37.628;2023-04-25T01:58:08;11.93;93.79
76857;DHT22;66179;44.686;37.628;2023-04-25T02:00:54;11.99;93.44
76857;DHT22;66179;44.686;37.628;2023-04-25T02:03:21;11.98;94.17
76857;DHT22;66179;44.686;37.628;2023-04-25T02:05:48;11.90;93.54
76857;DHT22;66179;44.686;37.628;2023-04-25T02:08:16;11.91;93.93
76857;DHT22;66179;44.686;37.628;2023-04-25T02:10:43;11.99;93.17
76857;DHT22;66179;44.686;37.628;2023-04-25T02:13:19;12.05;92.58
76857;DHT22;66179;44.686;37.628;2023-04-25T02:15:58;12.06;92.87
76857;DHT22;66179;44.686;37.628;2023-04-25T02:18:25;12.10;92.30
76857;DHT22;66179;44.686;37.628;2023-04-25T02:20:52;12.15;92.96
76857;DHT22;66179;44.686;37.628;2023-04-25T02:23:20;12.25;91.98
76857;DHT22;66179;44.686;37.628;2023-04-25T02:25:47;12.27;92.72
76857;DHT22;66179;44.686;37.628;2023-04-25T02:28:13;12.21;92.18
76857;DHT22;66179;44.686;37.628;2023-04-25T02:30:40;12.18;92.66
76857;DHT22;66179;44.686;37.628;2023-04-25T02:33:07;12.12;91.89
76857;DHT22;66179;44.686;37.628;2023-04-25T02:35:33;12.07;91.30
76857;DHT22;66179;44.686;37.628;2023-04-25T02:38:00;12.06;91.70
76857;DHT22;66179;44.686;37.628;2023-04-25T02:40:27;12.05;91.86
76857;DHT22;66179;44.686;37.628;2023-04-25T02:42:54;12.05;91.63
76857;DHT22;66179;44.686;37.628;2023-04-25T02:45:21;12.07;92.35
76857;DHT22;66179;44.686;37.628;2023-04-25T02:47:48;12.13;92.51
76857;DHT22;66179;44.686;37.628;2023-04-25T02:50:15;12.14;92.58
76857;DHT22;66179;44.686;37.628;2023-04-25T02:52:42;12.08;92.44
76857;DHT22;66179;44.686;37.628;2023-04-25T02:55:14;12.05;93.11
76857;DHT22;66179;44.686;37.628;2023-04-25T02:57:41;11.99;93.62
76857;DHT22;66179;44.686;37.628;2023-04-25T03:00:12;11.94;94.26
76857;DHT22;66179;44.686;37.628;2023-04-25T03:02:40;11.98;94.61
76857;DHT22;66179;44.686;37.628;2023-04-25T03:05:08;11.99;94.24
76857;DHT22;66179;44.686;37.628;2023-04-25T03:07:35;12.03;93.95
76857;DHT22;66179;44.686;37.628;2023-04-25T03:10:03;12.01;93.10
76857;DHT22;66179;44.686;37.628;2023-04-25T03:12:31;12.00;93.17
76857;DHT22;66179;44.686;37.628;2023-04-25T03:14:58;11.97;94.51
76857;DHT22;66179;44.686;37.628;2023-04-25T03:17:25;12.00;94.22
76857;DHT22;66179;44.686;37.628;2023-04-25T03:19:52;12.02;94.36
76857;DHT22;66179;44.686;37.628;2023-04-25T03:22:19;12.02;94.30
76857;DHT22;66179;44.686;37.628;2023-04-25T03:24:46;12.04;92.78
76857;DHT22;66179;44.686;37.628;2023-04-25T03:27:14;12.07;93.95
76857;DHT22;66179;44.686;37.628;2023-04-25T03:29:41;12.08;92.14
76857;DHT22;66179;44.686;37.628;2023-04-25T03:32:09;12.02;86.05
76857;DHT22;66179;44.686;37.628;2023-04-25T03:34:35;12.03;87.41
76857;DHT22;66179;44.686;37.628;2023-04-25T03:37:02;11.99;89.13
76857;DHT22;66179;44.686;37.628;2023-04-25T03:39:34;11.99;90.16
76857;DHT22;66179;44.686;37.628;2023-04-25T03:42:01;11.98;91.33
76857;DHT22;66179;44.686;37.628;2023-04-25T03:44:29;12.01;92.24
76857;DHT22;66179;44.686;37.628;2023-04-25T03:46:56;12.03;92.80
76857;DHT22;66179;44.686;37.628;2023-04-25T03:49:24;12.13;92.91
76857;DHT22;66179;44.686;37.628;2023-04-25T03:51:57;12.19;93.62
76857;DHT22;66179;44.686;37.628;2023-04-25T03:54:24;12.26;93.03
76857;DHT22;66179;44.686;37.628;2023-04-25T03:57:20;12.31;93.37
76857;DHT22;66179;44.686;37.628;2023-04-25T03:59:47;12.36;93.30
76857;DHT22;66179;44.686;37.628;2023-04-25T04:02:15;12.42;93.66
76857;DHT22;66179;44.686;37.628;2023-04-25T04:04:42;12.40;93.75
76857;DHT22;66179;44.686;37.628;2023-04-25T04:07:10;12.43;94.46
76857;DHT22;66179;44.686;37.628;2023-04-25T04:09:40;12.45;94.48
76857;DHT22;66179;44.686;37.628;2023-04-25T04:12:11;12.47;94.75
76857;DHT22;66179;44.686;37.628;2023-04-25T04:14:40;12.46;93.14
76857;DHT22;66179;44.686;37.628;2023-04-25T04:17:07;12.47;94.68
76857;DHT22;66179;44.686;37.628;2023-04-25T04:19:34;12.49;95.22
76857;DHT22;66179;44.686;37.628;2023-04-25T04:22:20;12.51;95.04
76857;DHT22;66179;44.686;37.628;2023-04-25T04:24:48;12.43;93.17
76857;DHT22;66179;44.686;37.628;2023-04-25T04:27:21;12.48;94.60
76857;DHT22;66179;44.686;37.628;2023-04-25T04:30:07;12.48;95.50
76857;DHT22;66179;44.686;37.628;2023-04-25T04:32:39;12.51;94.43
76857;DHT22;66179;44.686;37.628;2023-04-25T04:35:06;12.57;95.23
76857;DHT22;66179;44.686;37.628;2023-04-25T04:37:33;12.64;95.02
76857;DHT22;66179;44.686;37.628;2023-04-25T04:40:01;12.65;94.59
76857;DHT22;66179;44.686;37.628;2023-04-25T04:42:46;12.69;93.64
76857;DHT22;66179;44.686;37.628;2023-04-25T04:45:36;12.72;93.90
76857;DHT22;66179;44.686;37.628;2023-04-25T04:48:33;12.72;94.33
76857;DHT22;66179;44.686;37.628;2023-04-25T04:51:27;12.70;94.81
76857;DHT22;66179;44.686;37.628;2023-04-25T04:53:53;12.76;95.39
76857;DHT22;66179;44.686;37.628;2023-04-25T04:56:53;12.78;95.25
76857;DHT22;66179;44.686;37.628;2023-04-25T04:59:22;12.79;94.75
76857;DHT22;66179;44.686;37.628;2023-04-25T05:02:06;12.79;94.81
76857;DHT22;66179;44.686;37.628;2023-04-25T05:04:56;12.87;95.18
76857;DHT22;66179;44.686;37.628;2023-04-25T05:07:54;12.88;94.75
76857;DHT22;66179;44.686;37.628;2023-04-25T05:10:40;12.84;94.09
76857;DHT22;66179;44.686;37.628;2023-04-25T05:13:30;12.81;93.30
76857;DHT22;66179;44.686;37.628;2023-04-25T05:16:15;12.85;94.04
76857;DHT22;66179;44.686;37.628;2023-04-25T05:18:57;12.79;94.00
76857;DHT22;66179;44.686;37.628;2023-04-25T05:21:43;12.80;93.78
76857;DHT22;66179;44.686;37.628;2023-04-25T05:24:29;12.91;94.36
76857;DHT22;66179;44.686;37.628;2023-04-25T05:27:11;12.94;92.21
76857;DHT22;66179;44.686;37.628;2023-04-25T05:30:01;12.93;92.16
76857;DHT22;66179;44.686;37.628;2023-04-25T05:32:47;12.95;92.57
76857;DHT22;66179;44.686;37.628;2023-04-25T05:35:14;12.93;91.24
76857;DHT22;66179;44.686;37.628;2023-04-25T05:37:45;13.01;92.82
76857;DHT22;66179;44.686;37.628;2023-04-25T05:40:14;12.97;90.72
76857;DHT22;66179;44.686;37.628;2023-04-25T05:42:43;13.05;90.90
76857;DHT22;66179;44.686;37.628;2023-04-25T05:45:29;13.02;90.71
76857;DHT22;66179;44.686;37.628;2023-04-25T05:47:56;13.11;92.98
76857;DHT22;66179;44.686;37.628;2023-04-25T05:50:43;13.15;91.06
76857;DHT22;66179;44.686;37.628;2023-04-25T05:53:19;13.16;90.93
76857;DHT22;66179;44.686;37.628;2023-04-25T05:55:53;13.25;92.05
76857;DHT22;66179;44.686;37.628;2023-04-25T05:58:27;13.17;89.34
76857;DHT22;66179;44.686;37.628;2023-04-25T06:00:55;13.20;89.57
76857;DHT22;66179;44.686;37.628;2023-04-25T06:03:22;13.23;90.18
76857;DHT22;66179;44.686;37.628;2023-04-25T06:05:50;13.27;89.31
76857;DHT22;66179;44.686;37.628;2023-04-25T06:08:16;13.31;90.37
76857;DHT22;66179;44.686;37.628;2023-04-25T06:10:43;13.44;92.37
76857;DHT22;66179;44.686;37.628;2023-04-25T06:13:09;13.58;90.86
76857;DHT22;66179;44.686;37.628;2023-04-25T06:15:37;13.65;89.56
76857;DHT22;66179;44.686;37.628;2023-04-25T06:18:04;13.67;90.22
76857;DHT22;66179;44.686;37.628;2023-04-25T06:20:30;13.63;88.64
76857;DHT22;66179;44.686;37.628;2023-04-25T06:22:59;13.55;88.79
76857;DHT22;66179;44.686;37.628;2023-04-25T06:25:49;13.54;88.91
76857;DHT22;66179;44.686;37.628;2023-04-25T06:28:16;13.55;89.81
76857;DHT22;66179;44.686;37.628;2023-04-25T06:30:44;13.60;88.89
76857;DHT22;66179;44.686;37.628;2023-04-25T06:33:14;13.63;89.92
76857;DHT22;66179;44.686;37.628;2023-04-25T06:35:41;13.61;89.38
76857;DHT22;66179;44.686;37.628;2023-04-25T06:38:11;13.56;88.76
76857;DHT22;66179;44.686;37.628;2023-04-25T06:40:39;13.49;88.75
76857;DHT22;66179;44.686;37.628;2023-04-25T06:43:07;13.39;88.58
76857;DHT22;66179;44.686;37.628;2023-04-25T06:45:50;13.38;89.67
76857;DHT22;66179;44.686;37.628;2023-04-25T06:48:18;13.48;90.54
76857;DHT22;66179;44.686;37.628;2023-04-25T06:50:45;13.44;89.07
76857;DHT22;66179;44.686;37.628;2023-04-25T06:53:12;13.50;90.28
76857;DHT22;66179;44.686;37.628;2023-04-25T06:55:41;13.47;88.93
76857;DHT22;66179;44.686;37.628;2023-04-25T06:58:13;13.49;89.44
76857;DHT22;66179;44.686;37.628;2023-04-25T07:00:52;13.56;89.00
76857;DHT22;66179;44.686;37.628;2023-04-25T07:03:20;13.53;87.21
76857;DHT22;66179;44.686;37.628;2023-04-25T07:05:47;13.52;87.06
76857;DHT22;66179;44.686;37.628;2023-04-25T07:08:14;13.47;86.91
76857;DHT22;66179;44.686;37.628;2023-04-25T07:10:41;13.37;88.14
76857;DHT22;66179;44.686;37.628;2023-04-25T07:13:08;13.43;87.93
76857;DHT22;66179;44.686;37.628;2023-04-25T07:15:34;13.47;87.91
76857;DHT22;66179;44.686;37.628;2023-04-25T07:18:01;13.52;88.78
76857;DHT22;66179;44.686;37.628;2023-04-25T07:20:28;13.50;88.16
76857;DHT22;66179;44.686;37.628;2023-04-25T07:22:57;13.46;87.13
76857;DHT22;66179;44.686;37.628;2023-04-25T07:25:24;13.41;87.25
76857;DHT22;66179;44.686;37.628;2023-04-25T07:27:51;13.40;86.33
76857;DHT22;66179;44.686;37.628;2023-04-25T07:30:20;13.49;87.93
76857;DHT22;66179;44.686;37.628;2023-04-25T07:32:47;13.50;87.61
76857;DHT22;66179;44.686;37.628;2023-04-25T07:35:13;13.52;87.76
76857;DHT22;66179;44.686;37.628;2023-04-25T07:37:41;13.53;86.16
76857;DHT22;66179;44.686;37.628;2023-04-25T07:40:12;13.50;86.70
76857;DHT22;66179;44.686;37.628;2023-04-25T07:42:44;13.50;86.50
76857;DHT22;66179;44.686;37.628;2023-04-25T07:45:13;13.56;86.48
76857;DHT22;66179;44.686;37.628;2023-04-25T07:47:40;13.61;86.64
76857;DHT22;66179;44.686;37.628;2023-04-25T07:50:08;13.65;85.69
76857;DHT22;66179;44.686;37.628;2023-04-25T07:52:35;13.55;85.51
76857;DHT22;66179;44.686;37.628;2023-04-25T07:55:18;13.56;85.72
76857;DHT22;66179;44.686;37.628;2023-04-25T07:58:07;13.56;84.18
76857;DHT22;66179;44.686;37.628;2023-04-25T08:00:36;13.58;83.70
76857;DHT22;66179;44.686;37.628;2023-04-25T08:03:36;13.58;84.58
76857;DHT22;66179;44.686;37.628;2023-04-25T08:06:07;13.60;85.74
76857;DHT22;66179;44.686;37.628;2023-04-25T08:08:43;13.61;85.23
76857;DHT22;66179;44.686;37.628;2023-04-25T08:11:13;13.59;84.45
76857;DHT22;66179;44.686;37.628;2023-04-25T08:13:40;13.63;84.86
76857;DHT22;66179;44.686;37.628;2023-04-25T08:16:16;13.51;84.03
76857;DHT22;66179;44.686;37.628;2023-04-25T08:18:43;13.52;84.80
76857;DHT22;66179;44.686;37.628;2023-04-25T08:21:10;13.48;85.71
76857;DHT22;66179;44.686;37.628;2023-04-25T08:23:38;13.49;85.18
76857;DHT22;66179;44.686;37.628;2023-04-25T08:26:15;13.52;85.27
76857;DHT22;66179;44.686;37.628;2023-04-25T08:28:43;13.49;85.16
76857;DHT22;66179;44.686;37.628;2023-04-25T08:31:09;13.52;85.16
76857;DHT22;66179;44.686;37.628;2023-04-25T08:33:49;13.60;85.56
76857;DHT22;66179;44.686;37.628;2023-04-25T08:36:32;13.52;85.26
76857;DHT22;66179;44.686;37.628;2023-04-25T08:38:59;13.51;84.94
76857;DHT22;66179;44.686;37.628;2023-04-25T08:41:27;13.62;85.29
76857;DHT22;66179;44.686;37.628;2023-04-25T08:43:56;13.74;84.86
76857;DHT22;66179;44.686;37.628;2023-04-25T08:46:24;13.82;86.19
76857;DHT22;66179;44.686;37.628;2023-04-25T08:49:08;13.98;84.58
76857;DHT22;66179;44.686;37.628;2023-04-25T08:51:44;14.12;83.32
76857;DHT22;66179;44.686;37.628;2023-04-25T08:54:16;14.14;82.69
76857;DHT22;66179;44.686;37.628;2023-04-25T08:56:47;14.19;82.46
76857;DHT22;66179;44.686;37.628;2023-04-25T08:59:14;14.28;82.64
76857;DHT22;66179;44.686;37.628;2023-04-25T09:01:43;14.41;84.28
76857;DHT22;66179;44.686;37.628;2023-04-25T09:04:12;14.55;81.31
76857;DHT22;66179;44.686;37.628;2023-04-25T09:06:39;14.70;82.33
76857;DHT22;66179;44.686;37.628;2023-04-25T09:09:08;14.56;80.48
76857;DHT22;66179;44.686;37.628;2023-04-25T09:11:37;14.77;81.28
76857;DHT22;66179;44.686;37.628;2023-04-25T09:14:15;15.01;80.42
76857;DHT22;66179;44.686;37.628;2023-04-25T09:17:04;15.07;78.67
76857;DHT22;66179;44.686;37.628;2023-04-25T09:19:49;15.08;81.18
76857;DHT22;66179;44.686;37.628;2023-04-25T09:22:22;15.23;77.15
76857;DHT22;66179;44.686;37.628;2023-04-25T09:24:49;15.18;77.72
76857;DHT22;66179;44.686;37.628;2023-04-25T09:27:20;15.09;77.13
76857;DHT22;66179;44.686;37.628;2023-04-25T09:29:59;14.88;78.25
76857;DHT22;66179;44.686;37.628;2023-04-25T09:32:43;14.81;78.36
76857;DHT22;66179;44.686;37.628;2023-04-25T09:35:23;14.82;80.49
76857;DHT22;66179;44.686;37.628;2023-04-25T09:37:53;14.96;79.16
76857;DHT22;66179;44.686;37.628;2023-04-25T09:40:59;15.10;76.94
76857;DHT22;66179;44.686;37.628;2023-04-25T09:43:39;15.33;77.50
76857;DHT22;66179;44.686;37.628;2023-04-25T09:46:10;15.32;76.24
76857;DHT22;66179;44.686;37.628;2023-04-25T09:48:48;15.46;75.60
76857;DHT22;66179;44.686;37.628;2023-04-25T09:51:16;15.09;76.12
76857;DHT22;66179;44.686;37.628;2023-04-25T09:53:47;14.95;77.54
76857;DHT22;66179;44.686;37.628;2023-04-25T09:56:23;14.88;77.37
76857;DHT22;66179;44.686;37.628;2023-04-25T09:58:53;14.80;78.56
76857;DHT22;66179;44.686;37.628;2023-04-25T10:01:21;14.85;78.65
76857;DHT22;66179;44.686;37.628;2023-04-25T10:04:12;14.92;79.03
76857;DHT22;66179;44.686;37.628;2023-04-25T10:06:51;15.04;76.89
76857;DHT22;66179;44.686;37.628;2023-04-25T10:09:21;15.00;78.79
76857;DHT22;66179;44.686;37.628;2023-04-25T10:11:52;14.86;77.98
76857;DHT22;66179;44.686;37.628;2023-04-25T10:14:19;14.80;79.24
76857;DHT22;66179;44.686;37.628;2023-04-25T10:16:47;14.71;78.66
76857;DHT22;66179;44.686;37.628;2023-04-25T10:19:14;14.86;78.66
76857;DHT22;66179;44.686;37.628;2023-04-25T10:21:50;14.88;78.79
76857;DHT22;66179;44.686;37.628;2023-04-25T10:24:18;14.89;77.60
76857;DHT22;66179;44.686;37.628;2023-04-25T10:26:46;14.97;77.72
76857;DHT22;66179;44.686;37.628;2023-04-25T10:29:21;14.99;76.82
76857;DHT22;66179;44.686;37.628;2023-04-25T10:31:48;15.27;76.76
76857;DHT22;66179;44.686;37.628;2023-04-25T10:34:16;15.44;75.97
76857;DHT22;66179;44.686;37.628;2023-04-25T10:36:49;15.30;76.14
76857;DHT22;66179;44.686;37.628;2023-04-25T10:39:25;15.03;75.97
76857;DHT22;66179;44.686;37.628;2023-04-25T10:41:56;15.08;76.20
76857;DHT22;66179;44.686;37.628;2023-04-25T10:44:28;15.28;76.61
76857;DHT22;66179;44.686;37.628;2023-04-25T10:46:56;15.47;75.40
76857;DHT22;66179;44.686;37.628;2023-04-25T10:49:31;15.39;75.83
76857;DHT22;66179;44.686;37.628;2023-04-25T10:52:30;15.30;73.81
76857;DHT22;66179;44.686;37.628;2023-04-25T10:55:03;15.36;74.75
76857;DHT22;66179;44.686;37.628;2023-04-25T10:57:44;15.34;75.26
76857;DHT22;66179;44.686;37.628;2023-04-25T11:00:20;15.52;74.76
76857;DHT22;66179;44.686;37.628;2023-04-25T11:02:52;15.97;73.34
76857;DHT22;66179;44.686;37.628;2023-04-25T11:05:32;16.63;72.30
76857;DHT22;66179;44.686;37.628;2023-04-25T11:08:00;16.64;69.47
76857;DHT22;66179;44.686;37.628;2023-04-25T11:10:31;16.58;71.19
76857;DHT22;66179;44.686;37.628;2023-04-25T11:12:58;16.92;71.16
76857;DHT22;66179;44.686;37.628;2023-04-25T11:15:26;17.15;69.16
76857;DHT22;66179;44.686;37.628;2023-04-25T11:17:53;16.87;69.74
76857;DHT22;66179;44.686;37.628;2023-04-25T11:20:21;16.70;71.62
76857;DHT22;66179;44.686;37.628;2023-04-25T11:22:48;16.35;72.70
76857;DHT22;66179;44.686;37.628;2023-04-25T11:25:15;16.08;72.57
76857;DHT22;66179;44.686;37.628;2023-04-25T11:27:58;16.02;73.82
76857;DHT22;66179;44.686;37.628;2023-04-25T11:30:27;16.35;72.54
76857;DHT22;66179;44.686;37.628;2023-04-25T11:32:56;16.40;73.09
76857;DHT22;66179;44.686;37.628;2023-04-25T11:35:23;16.57;75.68
76857;DHT22;66179;44.686;37.628;2023-04-25T11:37:51;16.79;72.78
76857;DHT22;66179;44.686;37.628;2023-04-25T11:40:18;16.51;71.64
76857;DHT22;66179;44.686;37.628;2023-04-25T11:42:46;16.17;72.31
76857;DHT22;66179;44.686;37.628;2023-04-25T11:45:13;16.16;74.39
76857;DHT22;66179;44.686;37.628;2023-04-25T11:47:41;15.99;73.97
76857;DHT22;66179;44.686;37.628;2023-04-25T11:50:08;15.81;74.87
76857;DHT22;66179;44.686;37.628;2023-04-25T11:52:45;15.74;76.71
76857;DHT22;66179;44.686;37.628;2023-04-25T11:55:19;16.08;75.38
76857;DHT22;66179;44.686;37.628;2023-04-25T11:57:49;16.58;75.12
76857;DHT22;66179;44.686;37.628;2023-04-25T12:00:20;16.42;71.41
76857;DHT22;66179;44.686;37.628;2023-04-25T12:02:51;16.54;71.42
76857;DHT22;66179;44.686;37.628;2023-04-25T12:05:19;16.87;71.84
76857;DHT22;66179;44.686;37.628;2023-04-25T12:07:46;17.26;71.66
76857;DHT22;66179;44.686;37.628;2023-04-25T12:10:18;17.06;69.46
76857;DHT22;66179;44.686;37.628;2023-04-25T12:12:47;17.13;70.13
76857;DHT22;66179;44.686;37.628;2023-04-25T12:15:16;17.04;69.40
76857;DHT22;66179;44.686;37.628;2023-04-25T12:17:50;16.58;71.37
76857;DHT22;66179;44.686;37.628;2023-04-25T12:20:18;16.72;70.23
76857;DHT22;66179;44.686;37.628;2023-04-25T12:22:50;16.36;71.30
76857;DHT22;66179;44.686;37.628;2023-04-25T12:25:39;16.82;71.16
76857;DHT22;66179;44.686;37.628;2023-04-25T12:28:32;16.65;70.81
76857;DHT22;66179;44.686;37.628;2023-04-25T12:31:01;16.67;70.81
76857;DHT22;66179;44.686;37.628;2023-04-25T12:33:29;16.62;72.94
76857;DHT22;66179;44.686;37.628;2023-04-25T12:35:57;17.06;69.93
76857;DHT22;66179;44.686;37.628;2023-04-25T12:38:25;17.56;68.40
76857;DHT22;66179;44.686;37.628;2023-04-25T12:40:53;17.77;66.69
76857;DHT22;66179;44.686;37.628;2023-04-25T12:43:19;17.44;68.03
76857;DHT22;66179;44.686;37.628;2023-04-25T12:45:51;17.07;68.39
76857;DHT22;66179;44.686;37.628;2023-04-25T12:48:19;17.14;70.09
76857;DHT22;66179;44.686;37.628;2023-04-25T12:50:47;17.19;68.72
76857;DHT22;66179;44.686;37.628;2023-04-25T12:53:20;17.13;69.13
76857;DHT22;66179;44.686;37.628;2023-04-25T12:55:47;17.05;70.62
76857;DHT22;66179;44.686;37.628;2023-04-25T12:58:16;17.01;70.69
76857;DHT22;66179;44.686;37.628;2023-04-25T13:00:44;17.21;69.32
76857;DHT22;66179;44.686;37.628;2023-04-25T13:03:11;17.11;69.07
76857;DHT22;66179;44.686;37.628;2023-04-25T13:05:39;17.19;70.07
76857;DHT22;66179;44.686;37.628;2023-04-25T13:08:05;17.47;67.42
76857;DHT22;66179;44.686;37.628;2023-04-25T13:10:32;17.62;67.81
76857;DHT22;66179;44.686;37.628;2023-04-25T13:13:00;17.51;67.98
76857;DHT22;66179;44.686;37.628;2023-04-25T13:15:28;17.13;71.88
76857;DHT22;66179;44.686;37.628;2023-04-25T13:17:55;17.06;71.38
76857;DHT22;66179;44.686;37.628;2023-04-25T13:20:22;17.16;70.03
76857;DHT22;66179;44.686;37.628;2023-04-25T13:22:48;16.99;69.68
76857;DHT22;66179;44.686;37.628;2023-04-25T13:25:15;16.60;71.55
76857;DHT22;66179;44.686;37.628;2023-04-25T13:27:42;16.49;72.78
76857;DHT22;66179;44.686;37.628;2023-04-25T13:30:10;16.62;72.38
76857;DHT22;66179;44.686;37.628;2023-04-25T13:32:37;16.94;72.22
76857;DHT22;66179;44.686;37.628;2023-04-25T13:35:06;16.60;72.68
76857;DHT22;66179;44.686;37.628;2023-04-25T13:37:33;16.82;73.15
76857;DHT22;66179;44.686;37.628;2023-04-25T13:40:01;16.57;72.36
76857;DHT22;66179;44.686;37.628;2023-04-25T13:42:30;16.36;73.91
76857;DHT22;66179;44.686;37.628;2023-04-25T13:44:57;16.15;74.69
76857;DHT22;66179;44.686;37.628;2023-04-25T13:47:25;16.20;74.15
76857;DHT22;66179;44.686;37.628;2023-04-25T13:49:52;16.15;73.49
76857;DHT22;66179;44.686;37.628;2023-04-25T13:52:19;15.88;75.15
76857;DHT22;66179;44.686;37.628;2023-04-25T13:54:46;15.86;75.32
76857;DHT22;66179;44.686;37.628;2023-04-25T13:57:13;15.93;74.81
76857;DHT22;66179;44.686;37.628;2023-04-25T13:59:39;15.82;75.12
76857;DHT22;66179;44.686;37.628;2023-04-25T14:02:07;15.91;74.56
76857;DHT22;66179;44.686;37.628;2023-04-25T14:04:33;15.98;74.71
76857;DHT22;66179;44.686;37.628;2023-04-25T14:07:00;15.93;73.56
76857;DHT22;66179;44.686;37.628;2023-04-25T14:09:28;15.97;73.78
76857;DHT22;66179;44.686;37.628;2023-04-25T14:11:55;15.77;74.83
76857;DHT22;66179;44.686;37.628;2023-04-25T14:14:23;15.67;77.03
76857;DHT22;66179;44.686;37.628;2023-04-25T14:16:51;15.65;75.11
76857;DHT22;66179;44.686;37.628;2023-04-25T14:19:20;15.59;75.13
76857;DHT22;66179;44.686;37.628;2023-04-25T14:21:47;15.62;75.43
76857;DHT22;66179;44.686;37.628;2023-04-25T14:24:14;15.69;75.50
76857;DHT22;66179;44.686;37.628;2023-04-25T14:26:40;15.72;74.47
76857;DHT22;66179;44.686;37.628;2023-04-25T14:29:09;15.83;74.79
76857;DHT22;66179;44.686;37.628;2023-04-25T14:31:38;15.78;75.02
76857;DHT22;66179;44.686;37.628;2023-04-25T14:34:05;15.65;76.18
76857;DHT22;66179;44.686;37.628;2023-04-25T14:36:32;15.53;77.52
76857;DHT22;66179;44.686;37.628;2023-04-25T14:38:59;15.47;77.56
76857;DHT22;66179;44.686;37.628;2023-04-25T14:41:26;15.40;79.17
76857;DHT22;66179;44.686;37.628;2023-04-25T14:43:53;15.18;80.29
76857;DHT22;66179;44.686;37.628;2023-04-25T14:46:20;15.17;78.69
76857;DHT22;66179;44.686;37.628;2023-04-25T14:48:48;15.02;78.86
76857;DHT22;66179;44.686;37.628;2023-04-25T14:51:15;14.94;78.18
76857;DHT22;66179;44.686;37.628;2023-04-25T14:53:42;14.95;78.27
76857;DHT22;66179;44.686;37.628;2023-04-25T14:56:09;15.00;78.92
76857;DHT22;66179;44.686;37.628;2023-04-25T14:58:36;14.91;78.43
76857;DHT22;66179;44.686;37.628;2023-04-25T15:01:04;14.88;78.58
76857;DHT22;66179;44.686;37.628;2023-04-25T15:03:30;14.85;77.72
76857;DHT22;66179;44.686;37.628;2023-04-25T15:05:58;14.77;78.84
76857;DHT22;66179;44.686;37.628;2023-04-25T15:08:25;14.72;79.49
76857;DHT22;66179;44.686;37.628;2023-04-25T15:10:52;14.59;78.72
76857;DHT22;66179;44.686;37.628;2023-04-25T15:13:20;14.56;78.29
76857;DHT22;66179;44.686;37.628;2023-04-25T15:15:47;14.62;78.57
76857;DHT22;66179;44.686;37.628;2023-04-25T15:18:19;14.58;79.66
76857;DHT22;66179;44.686;37.628;2023-04-25T15:20:49;14.62;80.49
76857;DHT22;66179;44.686;37.628;2023-04-25T15:23:19;14.58;80.80
76857;DHT22;66179;44.686;37.628;2023-04-25T15:25:47;14.57;81.22
76857;DHT22;66179;44.686;37.628;2023-04-25T15:28:14;14.53;81.98
76857;DHT22;66179;44.686;37.628;2023-04-25T15:30:45;14.45;81.40
76857;DHT22;66179;44.686;37.628;2023-04-25T15:33:12;14.38;82.05
76857;DHT22;66179;44.686;37.628;2023-04-25T15:35:39;14.45;80.79
76857;DHT22;66179;44.686;37.628;2023-04-25T15:38:06;14.48;82.17